LIBN/LCC METAR and TAF weather

Enter ICAO airport designator
Station Type Date Time Source
LIBN METAR 2019/09/21 20:55 UTC NOAA

LIBN 212055Z VRB01KT CAVOK 14/12 Q1022 RMK SKC VIS MIN 9999 WIND THR14 VRB01KT WIND THR32 VRB01KT BLU


Station Type Date Time Source
LIBN Decoded METAR 2019/09/21 20:55 UTC NOAA

Lecce, Italy (LIBN) 40-14N 018-09E 61M
Sep 21, 2019 - 04:55 PM EDT / 2019.09.21 2055 UTC
Wind: Variable at 1 MPH (1 KT):0
Visibility: greater than 7 mile(s):0
Temperature: 57 F (14 C)
Dew Point: 53 F (12 C)
Relative Humidity: 87%
Pressure (altimeter): 30.18 in. Hg (1022 hPa)
ob: LIBN 212055Z VRB01KT CAVOK 14/12 Q1022 RMK SKC VIS MIN 9999 WIND THR14 VRB01KT WIND THR32 VRB01KT BLU
cycle: 21

Station Type Date Time Source
LIBN TAF 2019/09/11 12:30 UTC NOAA

TAF TAF LIBN 111100Z 1112/1124 09010KT 9999 SCT025
TEMPO 1112/1115 6000 RA FEW020CB SCT025

Example: see airport list